createdAt,value
2019-01-08T00:00:54.847Z,90.79
2019-01-08T00:01:54.639Z,90.97
2019-01-08T00:02:54.871Z,91.01
2019-01-08T00:03:54.803Z,91.11
2019-01-08T00:04:54.655Z,91.04
2019-01-08T00:05:55.022Z,91.04
2019-01-08T00:06:54.675Z,91.27
2019-01-08T00:07:54.715Z,91.19
2019-01-08T00:08:54.854Z,91.03
2019-01-08T00:09:54.809Z,91.17
2019-01-08T00:10:54.771Z,91.11
2019-01-08T00:11:55.526Z,90.73
2019-01-08T00:12:54.627Z,90.88
2019-01-08T00:13:55.215Z,91.03
2019-01-08T00:14:54.758Z,90.78
2019-01-08T00:15:54.846Z,91.07
2019-01-08T00:16:55.063Z,91.06
2019-01-08T00:17:55.019Z,91.22
2019-01-08T00:18:55.003Z,91.27
2019-01-08T00:19:54.948Z,91.26
2019-01-08T00:20:55.449Z,91.39
2019-01-08T00:21:54.692Z,91.55
2019-01-08T00:22:55.019Z,91.59
2019-01-08T00:23:55.060Z,91.61
2019-01-08T00:24:54.642Z,91.64
2019-01-08T00:25:54.686Z,91.83
2019-01-08T00:26:55.066Z,91.92
2019-01-08T00:27:54.926Z,91.92
2019-01-08T00:28:54.841Z,91.92
2019-01-08T00:29:54.607Z,91.81
2019-01-08T00:30:54.861Z,91.74
2019-01-08T00:31:54.603Z,91.74
2019-01-08T00:32:54.598Z,91.67
2019-01-08T00:33:54.636Z,91.64
2019-01-08T00:34:54.905Z,91.52
2019-01-08T00:35:54.620Z,91.59
2019-01-08T00:36:54.976Z,91.57
2019-01-08T00:37:54.787Z,91.74
2019-01-08T00:38:54.594Z,91.82
2019-01-08T00:39:54.726Z,91.71
2019-01-08T00:40:54.833Z,91.82
2019-01-08T00:41:54.409Z,91.86
2019-01-08T00:42:54.756Z,92.04
2019-01-08T00:43:54.968Z,92.01
2019-01-08T00:44:54.616Z,92.11
2019-01-08T00:45:54.741Z,92.21
2019-01-08T00:46:55.002Z,92.12
2019-01-08T00:47:54.655Z,92.11
2019-01-08T00:48:54.771Z,92.18
2019-01-08T00:49:54.574Z,92.21
2019-01-08T00:50:54.578Z,92.15
2019-01-08T00:51:54.571Z,92.03
2019-01-08T00:52:54.756Z,92.14
2019-01-08T00:53:54.802Z,92.14
2019-01-08T00:54:54.812Z,92.12
2019-01-08T00:55:55.026Z,92.11
2019-01-08T00:56:54.991Z,92.27
2019-01-08T00:57:54.597Z,92.22
2019-01-08T00:58:54.620Z,92.36
2019-01-08T00:59:54.576Z,92.44
2019-01-08T01:00:54.588Z,92.39
2019-01-08T01:01:54.646Z,92.3
2019-01-08T01:02:54.631Z,92.3
2019-01-08T01:03:54.801Z,92.32
2019-01-08T01:04:54.778Z,92.18
2019-01-08T01:05:54.572Z,92.29
2019-01-08T01:06:54.577Z,92.29
2019-01-08T01:07:54.972Z,92.49
2019-01-08T01:08:54.605Z,92.54
2019-01-08T01:09:55.110Z,92.56
2019-01-08T01:10:54.567Z,92.61
2019-01-08T01:11:54.553Z,92.46
2019-01-08T01:12:54.647Z,92.34
2019-01-08T01:13:54.626Z,92.45
2019-01-08T01:14:54.681Z,92.29
2019-01-08T01:15:54.583Z,92.08
2019-01-08T01:16:54.950Z,92.08
2019-01-08T01:17:54.514Z,92.23
2019-01-08T01:18:55.051Z,92.3
2019-01-08T01:19:54.716Z,92.38
2019-01-08T01:20:54.593Z,92.44
2019-01-08T01:21:54.720Z,92.29
2019-01-08T01:22:54.639Z,92.21
2019-01-08T01:23:54.578Z,92.24
2019-01-08T01:24:54.974Z,92.42
2019-01-08T01:25:54.610Z,92.34
2019-01-08T01:26:54.543Z,92.34
2019-01-08T01:27:54.808Z,92.24
2019-01-08T01:29:00.591Z,92.28
2019-01-08T01:29:54.700Z,92.27
2019-01-08T01:30:54.810Z,92.34
2019-01-08T01:31:54.788Z,92.47
2019-01-08T01:32:54.530Z,92.41
2019-01-08T01:33:54.633Z,92.16
2019-01-08T01:34:54.718Z,92.12
2019-01-08T01:35:54.877Z,92.09
2019-01-08T01:36:54.869Z,92.14
2019-01-08T01:37:54.567Z,92.12
2019-01-08T01:38:54.650Z,92.01
2019-01-08T01:39:54.815Z,92.2
2019-01-08T01:40:54.503Z,92.25
2019-01-08T01:41:54.623Z,92.3
2019-01-08T01:42:54.870Z,92.45
2019-01-08T01:43:54.660Z,92.33
2019-01-08T01:44:54.865Z,92.28
2019-01-08T01:45:54.956Z,92.39
2019-01-08T01:46:54.589Z,92.38
2019-01-08T01:47:54.797Z,92.34
2019-01-08T01:48:54.781Z,92.27
2019-01-08T01:49:54.946Z,92.25
2019-01-08T01:50:54.488Z,92.2
2019-01-08T01:51:55.268Z,92.07
2019-01-08T01:52:54.826Z,92.23
2019-01-08T01:53:54.532Z,92.33
2019-01-08T01:54:54.817Z,92.4
2019-01-08T01:55:54.582Z,92.37
2019-01-08T01:56:54.518Z,92.07
2019-01-08T01:57:54.784Z,92.09
2019-01-08T01:58:54.610Z,92.25
2019-01-08T01:59:54.517Z,92.39
2019-01-08T02:00:54.568Z,92.29
2019-01-08T02:01:54.736Z,92.21
2019-01-08T02:02:55.076Z,92.2
2019-01-08T02:03:54.605Z,92.33
2019-01-08T02:04:54.705Z,92.18
2019-01-08T02:05:54.648Z,92.15
2019-01-08T02:06:54.685Z,92.14
2019-01-08T02:07:54.586Z,92.09
2019-01-08T02:08:54.562Z,92.08
2019-01-08T02:09:54.862Z,92.07
2019-01-08T02:10:54.673Z,92.17
2019-01-08T02:11:55.331Z,92.29
2019-01-08T02:12:54.486Z,92.3
2019-01-08T02:13:54.802Z,92.26
2019-01-08T02:14:54.875Z,92.19
2019-01-08T02:15:54.866Z,92.18
2019-01-08T02:16:54.613Z,92.3
2019-01-08T02:17:54.599Z,92.43
2019-01-08T02:18:54.748Z,92.46
2019-01-08T02:19:54.604Z,92.42
2019-01-08T02:20:54.540Z,92.57
2019-01-08T02:21:54.512Z,92.64
2019-01-08T02:22:54.490Z,92.74
2019-01-08T02:23:54.479Z,92.76
2019-01-08T02:24:54.535Z,92.74
2019-01-08T02:25:54.490Z,92.77
2019-01-08T02:26:54.706Z,92.81
2019-01-08T02:27:55.003Z,92.8
2019-01-08T02:28:54.564Z,92.69
2019-01-08T02:29:54.446Z,92.65
2019-01-08T02:30:54.714Z,92.73
2019-01-08T02:31:54.648Z,92.81
2019-01-08T02:32:54.490Z,92.8
2019-01-08T02:33:54.474Z,92.85
2019-01-08T02:34:54.618Z,92.9
2019-01-08T02:35:54.661Z,92.92
2019-01-08T02:36:54.470Z,93.01
2019-01-08T02:37:55.276Z,92.96
2019-01-08T02:38:54.632Z,93.13
2019-01-08T02:39:54.800Z,93.16
2019-01-08T02:40:54.481Z,93.19
2019-01-08T02:41:54.956Z,93.2
2019-01-08T02:42:54.664Z,93.28
2019-01-08T02:43:54.692Z,93.26
2019-01-08T02:44:54.751Z,93.37
2019-01-08T02:45:54.437Z,93.36
2019-01-08T02:46:54.501Z,93.34
2019-01-08T02:47:54.460Z,93.29
2019-01-08T02:48:54.462Z,93.4
2019-01-08T02:49:54.587Z,93.47
2019-01-08T02:50:54.447Z,93.57
2019-01-08T02:51:54.599Z,93.61
2019-01-08T02:52:54.441Z,93.61
2019-01-08T02:53:54.448Z,93.64
2019-01-08T02:54:54.485Z,93.68
2019-01-08T02:55:54.483Z,93.69
2019-01-08T02:56:54.520Z,93.74
2019-01-08T02:57:54.443Z,93.79
2019-01-08T02:58:54.397Z,93.73
2019-01-08T02:59:54.508Z,93.75
2019-01-08T03:00:54.926Z,93.77
2019-01-08T03:01:54.458Z,93.79
2019-01-08T03:02:54.749Z,93.82
2019-01-08T03:03:54.452Z,93.81
2019-01-08T03:04:54.442Z,93.84
2019-01-08T03:05:54.678Z,93.96
2019-01-08T03:06:54.522Z,93.99
2019-01-08T03:07:54.635Z,93.99
2019-01-08T03:08:54.827Z,94.03
2019-01-08T03:09:54.377Z,94.03
2019-01-08T03:10:55.214Z,94.07
2019-01-08T03:11:54.673Z,94.08
2019-01-08T03:12:54.498Z,94.08
2019-01-08T03:13:54.817Z,94.13
2019-01-08T03:14:54.718Z,94.17
2019-01-08T03:15:54.616Z,94.09
2019-01-08T03:16:54.470Z,94.06
2019-01-08T03:17:54.574Z,94.05
2019-01-08T03:18:54.373Z,94.04
2019-01-08T03:19:54.610Z,94.09
2019-01-08T03:20:54.593Z,94.2
2019-01-08T03:21:54.697Z,94.07
2019-01-08T03:22:56.413Z,94.08
2019-01-08T03:23:54.619Z,94.12
2019-01-08T03:24:54.718Z,94.16
2019-01-08T03:25:54.409Z,94.15
2019-01-08T03:26:54.659Z,94.1
2019-01-08T03:27:54.530Z,94.06
2019-01-08T03:28:54.518Z,94.1
2019-01-08T03:29:54.677Z,94.22
2019-01-08T03:30:54.545Z,94.24
2019-01-08T03:31:54.678Z,94.25
2019-01-08T03:32:54.574Z,94.22
2019-01-08T03:33:54.702Z,94.26
2019-01-08T03:34:54.537Z,94.29
2019-01-08T03:35:54.797Z,94.27
2019-01-08T03:36:54.673Z,94.31
2019-01-08T03:37:54.590Z,94.27
2019-01-08T03:38:54.525Z,94.2
2019-01-08T03:39:54.920Z,94.2
2019-01-08T03:40:55.035Z,94.29
2019-01-08T03:41:54.364Z,94.22
2019-01-08T03:42:54.336Z,94.25
2019-01-08T03:43:54.508Z,94.25
2019-01-08T03:44:54.410Z,94.29
2019-01-08T03:45:54.407Z,94.31
2019-01-08T03:46:54.399Z,94.18
2019-01-08T03:47:54.533Z,94.1
2019-01-08T03:48:54.499Z,94.16
2019-01-08T03:49:54.377Z,94.13
2019-01-08T03:50:54.495Z,94.09
2019-01-08T03:51:54.900Z,94.15
2019-01-08T03:52:54.389Z,94.14
2019-01-08T03:53:54.452Z,94.09
2019-01-08T03:54:54.652Z,94.11
2019-01-08T03:55:54.478Z,94.01
2019-01-08T03:56:54.369Z,94.07
2019-01-08T03:57:54.468Z,94.12
2019-01-08T03:58:54.537Z,94.06
2019-01-08T03:59:54.733Z,94
2019-01-08T04:00:54.446Z,93.93
2019-01-08T04:01:54.492Z,93.94
2019-01-08T04:02:54.615Z,94.01
2019-01-08T04:03:54.360Z,94.02
2019-01-08T04:04:54.770Z,93.99
2019-01-08T04:05:54.517Z,94.03
2019-01-08T04:06:55.054Z,93.94
2019-01-08T04:07:54.524Z,93.9
2019-01-08T04:08:54.515Z,93.77
2019-01-08T04:09:54.531Z,93.71
2019-01-08T04:10:54.659Z,93.74
2019-01-08T04:11:54.336Z,93.73
2019-01-08T04:12:54.481Z,93.61
2019-01-08T04:13:54.682Z,93.6
2019-01-08T04:14:54.371Z,93.59
2019-01-08T04:15:54.428Z,93.66
2019-01-08T04:16:54.513Z,93.75
2019-01-08T04:17:54.435Z,93.75
2019-01-08T04:18:54.431Z,93.74
2019-01-08T04:19:54.603Z,93.82
2019-01-08T04:20:54.670Z,93.87
2019-01-08T04:21:54.368Z,93.86
2019-01-08T04:22:54.626Z,93.93
2019-01-08T04:23:54.313Z,93.91
2019-01-08T04:24:54.373Z,93.79
2019-01-08T04:25:54.442Z,93.81
2019-01-08T04:26:54.313Z,93.82
2019-01-08T04:27:54.323Z,93.84
2019-01-08T04:28:54.378Z,93.91
2019-01-08T04:29:54.362Z,93.84
2019-01-08T04:30:54.274Z,93.77
2019-01-08T04:31:54.356Z,93.89
2019-01-08T04:32:54.373Z,93.87
2019-01-08T04:33:54.376Z,93.92
2019-01-08T04:34:54.291Z,93.91
2019-01-08T04:35:54.430Z,93.95
2019-01-08T04:36:54.282Z,94.03
2019-01-08T04:37:54.359Z,94.09
2019-01-08T04:38:54.321Z,93.97
2019-01-08T04:39:54.378Z,93.94
2019-01-08T04:40:54.324Z,93.96
2019-01-08T04:41:54.304Z,93.93
2019-01-08T04:42:54.569Z,93.95
2019-01-08T04:43:54.475Z,93.94
2019-01-08T04:44:54.713Z,93.96
2019-01-08T04:45:54.558Z,93.92
2019-01-08T04:46:54.256Z,93.83
2019-01-08T04:47:54.360Z,93.79
2019-01-08T04:48:54.628Z,93.73
2019-01-08T04:49:54.486Z,93.73
2019-01-08T04:50:54.746Z,93.8
2019-01-08T04:51:54.289Z,93.88
2019-01-08T04:52:54.284Z,93.87
2019-01-08T04:53:54.339Z,93.83
2019-01-08T04:54:54.289Z,93.78
2019-01-08T04:55:54.262Z,93.77
2019-01-08T04:56:54.664Z,93.76
2019-01-08T04:57:54.792Z,93.77
2019-01-08T04:58:54.250Z,93.76
2019-01-08T04:59:59.411Z,93.76
2019-01-08T05:00:54.270Z,93.73
2019-01-08T05:01:54.328Z,93.75
2019-01-08T05:02:54.364Z,93.83
2019-01-08T05:03:54.566Z,93.81
2019-01-08T05:04:54.554Z,93.83
2019-01-08T05:05:54.352Z,93.83
2019-01-08T05:06:54.581Z,93.75
2019-01-08T05:07:54.392Z,93.79
2019-01-08T05:08:54.406Z,93.88
2019-01-08T05:09:54.629Z,93.84
2019-01-08T05:10:54.438Z,93.82
2019-01-08T05:11:54.277Z,93.78
2019-01-08T05:12:54.239Z,93.88
2019-01-08T05:13:54.702Z,93.97
2019-01-08T05:14:54.215Z,93.99
2019-01-08T05:15:54.422Z,94.04
2019-01-08T05:16:54.327Z,93.99
2019-01-08T05:17:54.307Z,94.01
2019-01-08T05:18:55.054Z,93.93
2019-01-08T05:19:54.266Z,93.93
2019-01-08T05:20:54.435Z,93.98
2019-01-08T05:21:54.378Z,93.93
2019-01-08T05:22:54.311Z,93.86
2019-01-08T05:23:54.432Z,93.85
2019-01-08T05:24:54.488Z,93.8
2019-01-08T05:25:54.306Z,93.77
2019-01-08T05:26:54.298Z,93.75
2019-01-08T05:27:54.330Z,93.78
2019-01-08T05:28:54.627Z,93.88
2019-01-08T05:29:54.282Z,93.82
2019-01-08T05:30:54.327Z,93.8
2019-01-08T05:31:54.551Z,93.73
2019-01-08T05:32:54.681Z,93.74
2019-01-08T05:33:54.252Z,93.81
2019-01-08T05:34:54.220Z,93.85
2019-01-08T05:35:54.402Z,93.81
2019-01-08T05:36:55.015Z,93.87
2019-01-08T05:37:54.314Z,93.88
2019-01-08T05:38:55.089Z,93.95
2019-01-08T05:39:54.550Z,94.02
2019-01-08T05:40:54.232Z,94.04
2019-01-08T05:41:54.650Z,94.08
2019-01-08T05:42:54.608Z,94.19
2019-01-08T05:43:54.459Z,94.15
2019-01-08T05:44:54.224Z,94.14
2019-01-08T05:45:54.382Z,94.22
2019-01-08T05:46:54.433Z,94.21
2019-01-08T05:47:54.399Z,94.2
2019-01-08T05:48:54.356Z,94.17
2019-01-08T05:49:54.265Z,94.14
2019-01-08T05:50:54.235Z,94.13
2019-01-08T05:51:54.413Z,94.2
2019-01-08T05:52:54.226Z,94.23
2019-01-08T05:53:54.417Z,94.32
2019-01-08T05:54:54.331Z,94.29
2019-01-08T05:55:54.599Z,94.32
2019-01-08T05:56:54.249Z,94.39
2019-01-08T05:57:54.212Z,94.41
2019-01-08T05:58:54.580Z,94.36
2019-01-08T05:59:54.218Z,94.47
2019-01-08T06:00:54.204Z,94.6
2019-01-08T06:01:54.158Z,94.56
2019-01-08T06:02:54.489Z,94.63
2019-01-08T06:03:54.275Z,94.78
2019-01-08T06:04:54.319Z,94.85
2019-01-08T06:05:54.242Z,94.96
2019-01-08T06:06:54.216Z,95.01
2019-01-08T06:07:54.438Z,95.15
2019-01-08T06:08:54.188Z,95.22
2019-01-08T06:09:54.208Z,95.15
2019-01-08T06:10:54.171Z,95.05
2019-01-08T06:11:54.145Z,95
2019-01-08T06:12:54.154Z,94.93
2019-01-08T06:13:54.177Z,94.86
2019-01-08T06:14:54.189Z,94.95
2019-01-08T06:15:54.236Z,94.85
2019-01-08T06:16:54.164Z,94.83
2019-01-08T06:17:54.311Z,94.94
2019-01-08T06:18:54.351Z,94.89
2019-01-08T06:19:55.352Z,94.82
2019-01-08T06:20:54.158Z,94.88
2019-01-08T06:21:54.235Z,94.98
2019-01-08T06:22:54.187Z,94.96
2019-01-08T06:23:54.461Z,95
2019-01-08T06:24:54.308Z,95.12
2019-01-08T06:25:54.396Z,95.1
2019-01-08T06:26:54.309Z,95.1
2019-01-08T06:27:54.471Z,95.14
2019-01-08T06:28:54.350Z,95.15
2019-01-08T06:29:54.324Z,95.1
2019-01-08T06:30:54.397Z,95.17
2019-01-08T06:31:54.509Z,95.1
2019-01-08T06:32:54.596Z,95.12
2019-01-08T06:33:54.305Z,95.18
2019-01-08T06:34:54.227Z,95.17
2019-01-08T06:35:54.316Z,95.26
2019-01-08T06:36:54.290Z,95.17
2019-01-08T06:37:54.170Z,95.1
2019-01-08T06:38:54.497Z,95.04
2019-01-08T06:39:54.332Z,95.02
2019-01-08T06:40:58.182Z,95.08
2019-01-08T06:41:54.161Z,95.14
2019-01-08T06:42:54.374Z,95.03
2019-01-08T06:43:54.123Z,95.01
2019-01-08T06:44:54.181Z,94.96
2019-01-08T06:45:54.192Z,94.88
2019-01-08T06:46:54.362Z,94.81
2019-01-08T06:47:54.498Z,94.84
2019-01-08T06:48:54.192Z,94.92
2019-01-08T06:49:54.566Z,94.94
2019-01-08T06:50:56.651Z,94.91
2019-01-08T06:51:54.430Z,94.9
2019-01-08T06:52:54.311Z,94.99
2019-01-08T06:53:54.194Z,94.96
2019-01-08T06:54:54.264Z,94.91
2019-01-08T06:55:54.349Z,94.91
2019-01-08T06:56:54.948Z,94.88
2019-01-08T06:57:54.363Z,94.97
2019-01-08T06:58:54.331Z,95.05
2019-01-08T06:59:54.391Z,95.03
2019-01-08T07:00:54.292Z,95.02
2019-01-08T07:01:54.108Z,95.08
2019-01-08T07:02:54.218Z,95.11
2019-01-08T07:03:54.452Z,95.17
2019-01-08T07:04:54.409Z,95.22
2019-01-08T07:05:54.385Z,95.18
2019-01-08T07:06:54.159Z,95.2
2019-01-08T07:07:54.166Z,95.19
2019-01-08T07:08:54.459Z,95.21
2019-01-08T07:09:54.180Z,95.28
2019-01-08T07:10:54.413Z,95.39
2019-01-08T07:11:54.326Z,95.41
2019-01-08T07:12:54.918Z,95.47
2019-01-08T07:13:54.350Z,95.51
2019-01-08T07:14:54.480Z,95.54
2019-01-08T07:15:54.413Z,95.55
2019-01-08T07:16:54.186Z,95.59
2019-01-08T07:17:54.091Z,95.65
2019-01-08T07:18:54.141Z,95.68
2019-01-08T07:19:54.369Z,95.66
2019-01-08T07:20:54.142Z,95.7
2019-01-08T07:21:54.426Z,95.74
2019-01-08T07:22:54.088Z,95.87
2019-01-08T07:23:54.098Z,95.97
2019-01-08T07:24:54.191Z,95.95
2019-01-08T07:25:54.443Z,95.97
2019-01-08T07:26:54.482Z,95.98
2019-01-08T07:27:54.895Z,96.11
2019-01-08T07:28:54.160Z,96.08
2019-01-08T07:29:54.190Z,96.08
2019-01-08T07:30:54.095Z,96.12
2019-01-08T07:31:54.069Z,96.13
2019-01-08T07:32:54.301Z,96.14
2019-01-08T07:33:54.904Z,96.1
2019-01-08T07:34:54.255Z,96.09
2019-01-08T07:35:54.907Z,96.03
2019-01-08T07:36:54.579Z,96.1
2019-01-08T07:37:54.199Z,96.06
2019-01-08T07:38:54.359Z,95.99
2019-01-08T07:39:54.169Z,95.93
2019-01-08T07:40:54.271Z,95.91
2019-01-08T07:41:54.896Z,95.89
2019-01-08T07:42:54.137Z,95.86
2019-01-08T07:43:54.365Z,95.87
2019-01-08T07:44:54.372Z,95.85
2019-01-08T07:45:54.101Z,95.81
2019-01-08T07:46:54.095Z,95.85
2019-01-08T07:47:54.801Z,95.84
2019-01-08T07:48:54.283Z,95.88
2019-01-08T07:49:54.193Z,95.82
2019-01-08T07:50:54.217Z,95.73
2019-01-08T07:51:54.185Z,95.73
2019-01-08T07:52:54.069Z,95.74
2019-01-08T07:53:54.134Z,95.73
2019-01-08T07:54:54.087Z,95.71
2019-01-08T07:55:54.465Z,95.69
2019-01-08T07:56:54.174Z,95.67
2019-01-08T07:57:54.365Z,95.7
2019-01-08T07:58:54.254Z,95.66
2019-01-08T07:59:54.069Z,95.68
2019-01-08T08:00:54.075Z,95.67
2019-01-08T08:01:54.050Z,95.63
2019-01-08T08:02:54.023Z,95.67
2019-01-08T08:03:54.164Z,95.69
2019-01-08T08:04:54.429Z,95.66
2019-01-08T08:05:54.131Z,95.68
2019-01-08T08:06:54.180Z,95.7
2019-01-08T08:07:54.676Z,95.71
2019-01-08T08:08:54.512Z,95.73
2019-01-08T08:09:54.415Z,95.74
2019-01-08T08:10:54.508Z,95.72
2019-01-08T08:11:54.170Z,95.72
2019-01-08T08:12:54.137Z,95.73
2019-01-08T08:13:54.202Z,95.71
2019-01-08T08:14:54.073Z,95.73
2019-01-08T08:15:54.681Z,95.72
2019-01-08T08:16:54.288Z,95.72
2019-01-08T08:17:54.154Z,95.75
2019-01-08T08:18:54.350Z,95.85
2019-01-08T08:19:54.194Z,95.8
2019-01-08T08:20:54.192Z,95.84
2019-01-08T08:21:54.216Z,95.83
2019-01-08T08:22:54.115Z,95.82
2019-01-08T08:23:54.025Z,95.85
2019-01-08T08:24:56.189Z,95.86
2019-01-08T08:25:54.861Z,95.86
2019-01-08T08:26:54.134Z,95.91
2019-01-08T08:27:54.322Z,95.92
2019-01-08T08:28:54.326Z,95.94
2019-01-08T08:29:54.426Z,95.99
2019-01-08T08:30:59.293Z,96.04
2019-01-08T08:31:54.352Z,96.01
2019-01-08T08:32:54.210Z,96.06
2019-01-08T08:33:54.309Z,96.06
2019-01-08T08:34:53.948Z,96.05
2019-01-08T08:35:54.466Z,96.05
2019-01-08T08:36:54.031Z,96.05
2019-01-08T08:37:54.003Z,96.04
2019-01-08T08:38:54.128Z,96.03
2019-01-08T08:39:54.818Z,96.05
2019-01-08T08:40:54.055Z,96.04
2019-01-08T08:41:54.258Z,96.04
2019-01-08T08:42:54.379Z,95.94
2019-01-08T08:43:54.037Z,95.81
2019-01-08T08:44:54.092Z,95.75
2019-01-08T08:45:54.419Z,95.73
2019-01-08T08:46:54.137Z,95.66
2019-01-08T08:47:54.209Z,95.67
2019-01-08T08:48:54.215Z,95.65
2019-01-08T08:49:54.110Z,95.62
2019-01-08T08:50:54.317Z,95.52
2019-01-08T08:51:54.052Z,95.54
2019-01-08T08:52:54.227Z,95.5
2019-01-08T08:53:54.593Z,95.58
2019-01-08T08:54:54.158Z,95.58
2019-01-08T08:55:53.962Z,95.63
2019-01-08T08:56:54.220Z,95.65
2019-01-08T08:57:54.126Z,95.65
2019-01-08T08:58:53.979Z,95.66
2019-01-08T08:59:54.054Z,95.65
2019-01-08T09:00:54.360Z,95.65
2019-01-08T09:01:54.073Z,95.66
2019-01-08T09:02:54.112Z,95.7
2019-01-08T09:03:54.352Z,95.65
2019-01-08T09:04:54.163Z,95.58
2019-01-08T09:05:54.069Z,95.57
2019-01-08T09:06:54.247Z,95.58
2019-01-08T09:07:54.285Z,95.6
2019-01-08T09:08:54.410Z,95.59
2019-01-08T09:09:53.741Z,95.51
2019-01-08T09:10:54.226Z,95.4
2019-01-08T09:11:54.046Z,95.37
2019-01-08T09:12:54.136Z,95.3
2019-01-08T09:13:53.935Z,95.34
2019-01-08T09:14:54.215Z,95.43
2019-01-08T09:15:54.048Z,95.28
2019-01-08T09:16:54.212Z,95.35
2019-01-08T09:17:54.073Z,95.49
2019-01-08T09:18:53.992Z,95.28
2019-01-08T09:19:54.073Z,95.19
2019-01-08T09:20:54.050Z,95.19
2019-01-08T09:21:54.189Z,94.87
2019-01-08T09:22:54.082Z,94.73
2019-01-08T09:23:56.227Z,94.66
2019-01-08T09:24:54.076Z,94.61
2019-01-08T09:25:54.202Z,94.42
2019-01-08T09:26:53.930Z,94.37
2019-01-08T09:27:54.228Z,94.43
2019-01-08T09:28:54.017Z,94.34
2019-01-08T09:29:54.005Z,94.22
2019-01-08T09:30:53.959Z,94.16
2019-01-08T09:31:54.050Z,94.22
2019-01-08T09:32:54.360Z,94.09
2019-01-08T09:33:54.067Z,93.99
2019-01-08T09:34:54.025Z,93.61
2019-01-08T09:35:54.131Z,93.52
2019-01-08T09:36:54.043Z,93.58
2019-01-08T09:37:54.079Z,93.68
2019-01-08T09:38:53.977Z,93.86
2019-01-08T09:39:54.382Z,93.9
2019-01-08T09:40:54.058Z,93.93
2019-01-08T09:41:54.224Z,93.8
2019-01-08T09:42:54.124Z,93.69
2019-01-08T09:43:54.089Z,93.85
2019-01-08T09:44:54.075Z,93.75
2019-01-08T09:45:54.150Z,93.85
2019-01-08T09:46:54.260Z,93.71
2019-01-08T09:47:54.043Z,93.61
2019-01-08T09:48:53.972Z,93.67
2019-01-08T09:49:54.075Z,93.38
2019-01-08T09:50:54.174Z,92.98
2019-01-08T09:51:54.094Z,92.41
2019-01-08T09:52:54.148Z,92.16
2019-01-08T09:53:53.898Z,92.03
2019-01-08T09:54:54.141Z,92.09
2019-01-08T09:55:54.235Z,92.25
2019-01-08T09:56:54.241Z,92.13
2019-01-08T09:57:54.068Z,92.16
2019-01-08T09:58:54.001Z,91.92
2019-01-08T09:59:54.447Z,91.75
2019-01-08T10:00:54.003Z,91.47
2019-01-08T10:01:54.110Z,91.29
2019-01-08T10:02:53.858Z,91.56
2019-01-08T10:03:54.014Z,91.1
2019-01-08T10:04:54.278Z,90.73
2019-01-08T10:05:54.097Z,90.64
2019-01-08T10:06:54.001Z,90.66
2019-01-08T10:07:53.917Z,90.65
2019-01-08T10:08:53.853Z,90.53
2019-01-08T10:09:54.016Z,90.39
2019-01-08T10:10:54.181Z,90
2019-01-08T10:11:54.245Z,89.84
2019-01-08T10:12:54.008Z,89.94
2019-01-08T10:13:53.892Z,90.17
2019-01-08T10:14:54.177Z,89.77
2019-01-08T10:15:54.065Z,89.18
2019-01-08T10:16:53.870Z,89.33
2019-01-08T10:17:54.105Z,89.16
2019-01-08T10:18:54.065Z,89.18
2019-01-08T10:19:54.146Z,89.27
2019-01-08T10:20:54.658Z,89.04
2019-01-08T10:21:54.665Z,89.28
2019-01-08T10:22:54.048Z,89.4
2019-01-08T10:23:53.997Z,88.98
2019-01-08T10:24:53.822Z,88.87
2019-01-08T10:25:53.847Z,88.35
2019-01-08T10:26:54.129Z,88.12
2019-01-08T10:27:54.016Z,87.3
2019-01-08T10:28:54.145Z,86.98
2019-01-08T10:29:53.827Z,86.39
2019-01-08T10:30:54.342Z,85.11
2019-01-08T10:31:53.836Z,84.98
2019-01-08T10:32:53.826Z,85.28
2019-01-08T10:33:54.684Z,84.76
2019-01-08T10:34:54.097Z,84.85
2019-01-08T10:35:53.879Z,84.69
2019-01-08T10:36:54.231Z,84.34
2019-01-08T10:37:54.015Z,84.21
2019-01-08T10:38:54.104Z,84.67
2019-01-08T10:39:53.826Z,83.99
2019-01-08T10:40:53.887Z,84.72
2019-01-08T10:41:53.932Z,83.92
2019-01-08T10:42:54.028Z,84.57
2019-01-08T10:43:54.634Z,84.78
2019-01-08T10:44:54.044Z,83.71
2019-01-08T10:45:54.007Z,82.92
2019-01-08T10:46:53.925Z,83.13
2019-01-08T10:47:53.922Z,83.26
2019-01-08T10:48:54.517Z,82.93
2019-01-08T10:49:53.983Z,83.14
2019-01-08T10:50:53.807Z,82.88
2019-01-08T10:51:54.217Z,83.33
2019-01-08T10:52:53.819Z,83.16
2019-01-08T10:53:54.079Z,83.27
2019-01-08T10:54:53.851Z,83.13
2019-01-08T10:55:53.970Z,82.7
2019-01-08T10:56:54.065Z,82.69
2019-01-08T10:57:54.023Z,82.63
2019-01-08T10:58:53.971Z,82.32
2019-01-08T10:59:54.061Z,82.36
2019-01-08T11:00:53.849Z,81.85
2019-01-08T11:01:54.278Z,81.29
2019-01-08T11:02:53.788Z,80.26
2019-01-08T11:03:53.853Z,79.98
2019-01-08T11:04:53.816Z,80.27
2019-01-08T11:05:53.796Z,80.47
2019-01-08T11:06:53.849Z,80.46
2019-01-08T11:07:53.988Z,80.44
2019-01-08T11:08:54.171Z,79.57
2019-01-08T11:09:53.757Z,79.27
2019-01-08T11:10:53.863Z,79.82
2019-01-08T11:11:53.801Z,79.77
2019-01-08T11:12:53.825Z,79.01
2019-01-08T11:13:54.111Z,77.59
2019-01-08T11:14:53.772Z,78.75
2019-01-08T11:15:53.799Z,78.06
2019-01-08T11:16:53.823Z,78.69
2019-01-08T11:17:53.919Z,78.38
2019-01-08T11:18:53.832Z,77.04
2019-01-08T11:19:53.771Z,77.72
2019-01-08T11:20:53.937Z,78.46
2019-01-08T11:21:53.851Z,78.76
2019-01-08T11:22:53.846Z,78.08
2019-01-08T11:23:53.772Z,78.34
2019-01-08T11:24:54.012Z,78.09
2019-01-08T11:25:54.005Z,78.31
2019-01-08T11:26:53.845Z,78.07
2019-01-08T11:27:53.745Z,77.84
2019-01-08T11:28:54.034Z,77.78
2019-01-08T11:29:54.561Z,77.66
2019-01-08T11:30:53.778Z,78.26
2019-01-08T11:31:53.842Z,77.99
2019-01-08T11:32:55.037Z,78.36
2019-01-08T11:33:54.028Z,78.44
2019-01-08T11:34:53.696Z,79.22
2019-01-08T11:35:54.311Z,78.9
2019-01-08T11:36:54.058Z,79.06
2019-01-08T11:37:53.866Z,78.37
2019-01-08T11:38:53.941Z,78.81
2019-01-08T11:39:54.109Z,79.12
2019-01-08T11:40:54.229Z,78.9
2019-01-08T11:41:54.154Z,78.42
2019-01-08T11:42:54.012Z,78.98
2019-01-08T11:43:54.118Z,79.46
2019-01-08T11:44:54.594Z,79.32
2019-01-08T11:45:53.793Z,79.59
2019-01-08T11:46:54.567Z,79.99
2019-01-08T11:47:53.982Z,79.7
2019-01-08T11:48:54.121Z,79.53
2019-01-08T11:49:53.794Z,78.42
2019-01-08T11:50:54.062Z,78.22
2019-01-08T11:51:54.240Z,78.11
2019-01-08T11:52:53.843Z,78.06
2019-01-08T11:53:53.867Z,77.88
2019-01-08T11:54:53.861Z,77.5
2019-01-08T11:55:53.833Z,77.73
2019-01-08T11:56:54.011Z,78.33
2019-01-08T11:57:54.067Z,78.65
2019-01-08T11:58:54.019Z,78.75
2019-01-08T11:59:53.945Z,78.38
2019-01-08T12:00:53.722Z,77.99
2019-01-08T12:01:57.801Z,78.15
2019-01-08T12:02:54.034Z,78
2019-01-08T12:03:53.841Z,77.8
2019-01-08T12:04:53.773Z,77.58
2019-01-08T12:05:54.087Z,77.74
2019-01-08T12:06:54.011Z,77.86
2019-01-08T12:07:53.713Z,77.72
2019-01-08T12:08:54.143Z,77.83
2019-01-08T12:09:53.711Z,77.42
2019-01-08T12:10:53.819Z,77.74
2019-01-08T12:11:54.147Z,78.19
2019-01-08T12:12:53.715Z,78.15
2019-01-08T12:13:53.936Z,77.37
2019-01-08T12:14:53.849Z,77.51
2019-01-08T12:15:53.727Z,77.52
2019-01-08T12:16:54.125Z,77.64
2019-01-08T12:17:53.727Z,77.93
2019-01-08T12:18:53.741Z,78.49
2019-01-08T12:19:53.827Z,78.93
2019-01-08T12:20:53.819Z,78.81
2019-01-08T12:21:53.724Z,79.34
2019-01-08T12:22:54.024Z,79.66
2019-01-08T12:23:53.784Z,78.55
2019-01-08T12:24:53.766Z,78.92
2019-01-08T12:25:54.040Z,79.33
2019-01-08T12:26:53.726Z,79.77
2019-01-08T12:27:53.820Z,79.57
2019-01-08T12:28:53.702Z,80.16
2019-01-08T12:29:54.049Z,80.27
2019-01-08T12:30:53.703Z,79.88
2019-01-08T12:31:55.998Z,80.56
2019-01-08T12:32:53.650Z,80.93
2019-01-08T12:33:53.753Z,80.84
2019-01-08T12:34:53.752Z,80.98
2019-01-08T12:35:53.698Z,81.19
2019-01-08T12:36:53.630Z,81.26
2019-01-08T12:37:53.632Z,82.02
2019-01-08T12:38:53.793Z,82.01
2019-01-08T12:39:53.808Z,81.91
2019-01-08T12:40:54.073Z,81.8
2019-01-08T12:41:53.971Z,81.42
2019-01-08T12:42:53.675Z,81.96
2019-01-08T12:43:55.908Z,82.1
2019-01-08T12:44:54.082Z,82.39
2019-01-08T12:45:53.992Z,82.78
2019-01-08T12:46:53.829Z,82.63
2019-01-08T12:47:53.686Z,82.72
2019-01-08T12:48:53.844Z,82.85
2019-01-08T12:49:54.674Z,82.66
2019-01-08T12:50:53.684Z,83.11
2019-01-08T12:51:53.628Z,82.4
2019-01-08T12:52:53.594Z,82.38
2019-01-08T12:53:53.722Z,82.3
2019-01-08T12:54:53.994Z,82.44
2019-01-08T12:55:53.785Z,82.95